Time;durP1;ratioP1;P1;durP2;ratioP2;P2;SDS_P1;SDS_P2;PMS_P1;PMS_P2;Temp;Humidity;BMP_temperature;BMP_pressure;BME280_temperature;BME280_humidity;BME280_pressure;Samples;Min_cycle;Max_cycle;Signal;HPM_P1;HPM_P2
2022/07/23 00:01:23;;;;;;;8.25;3.35;;;15.10;99.90;;;;;;5049619;28;20132;-75
2022/07/23 00:03:49;;;;;;;13.90;4.05;;;15.10;99.90;;;;;;5053962;28;20041;-76
2022/07/23 00:06:15;;;;;;;5.53;3.30;;;15.00;99.90;;;;;;5094137;28;20476;-76
2022/07/23 00:08:41;;;;;;;8.15;3.65;;;15.00;99.90;;;;;;5050220;28;20089;-75
2022/07/23 00:11:07;;;;;;;9.55;3.80;;;15.00;99.90;;;;;;5095047;28;20119;-74
2022/07/23 00:13:33;;;;;;;8.38;4.00;;;15.00;99.90;;;;;;5101167;28;20067;-76
2022/07/23 00:15:58;;;;;;;10.82;4.13;;;14.90;99.90;;;;;;5070789;28;20036;-76
2022/07/23 00:19:02;;;;;;;8.00;3.97;;;15.00;99.90;;;;;;5059954;28;20119;-75
2022/07/23 00:21:28;;;;;;;7.45;3.90;;;14.90;99.90;;;;;;5070612;28;20491;-73
2022/07/23 00:23:54;;;;;;;8.00;3.90;;;14.90;99.90;;;;;;5053863;28;20052;-76
2022/07/23 00:26:19;;;;;;;7.35;4.05;;;14.90;99.90;;;;;;5083376;28;20076;-76
2022/07/23 00:28:45;;;;;;;8.52;4.30;;;14.80;99.90;;;;;;5069596;28;20487;-77
2022/07/23 00:31:11;;;;;;;8.40;4.00;;;14.80;99.90;;;;;;5055720;28;20040;-75
2022/07/23 00:33:36;;;;;;;15.50;4.40;;;14.80;99.90;;;;;;5054558;28;20076;-75
2022/07/23 00:36:02;;;;;;;11.90;4.13;;;14.80;99.90;;;;;;5069079;28;20403;-75
2022/07/23 00:38:33;;;;;;;11.93;3.95;;;14.70;99.90;;;;;;5049104;28;20131;-76
2022/07/23 00:40:58;;;;;;;11.35;4.05;;;14.70;99.90;;;;;;5052459;28;20037;-75
2022/07/23 00:43:24;;;;;;;10.07;4.53;;;14.60;99.90;;;;;;5067502;28;20036;-75
2022/07/23 00:45:51;;;;;;;9.32;4.50;;;14.60;99.90;;;;;;5067352;28;20118;-75
2022/07/23 00:48:16;;;;;;;11.13;4.13;;;14.60;99.90;;;;;;5068858;28;20082;-75
2022/07/23 00:50:43;;;;;;;7.55;4.10;;;14.60;99.90;;;;;;5053313;28;20114;-75
2022/07/23 00:53:10;;;;;;;10.27;4.18;;;14.60;99.90;;;;;;5054639;28;20049;-75
2022/07/23 00:55:35;;;;;;;7.57;4.53;;;14.60;99.90;;;;;;5068559;28;20024;-75
2022/07/23 00:58:02;;;;;;;10.30;4.10;;;14.60;99.90;;;;;;5051034;28;20040;-76
2022/07/23 01:00:28;;;;;;;6.28;4.07;;;14.60;99.90;;;;;;5069358;28;20418;-75
2022/07/23 01:02:54;;;;;;;7.55;4.43;;;14.60;99.90;;;;;;5069082;28;20486;-75
2022/07/23 01:05:21;;;;;;;10.02;4.20;;;14.60;99.90;;;;;;5062956;28;20057;-76
2022/07/23 01:07:49;;;;;;;8.40;3.95;;;14.50;99.90;;;;;;5049491;28;20459;-75
2022/07/23 01:10:32;;;;;;;13.00;5.07;;;14.50;99.90;;;;;;5062451;28;20071;-76
2022/07/23 01:13:07;;;;;;;8.20;4.25;;;14.60;99.90;;;;;;5062168;28;20040;-76
2022/07/23 01:15:34;;;;;;;7.28;4.68;;;14.60;99.90;;;;;;5069824;28;20074;-76
2022/07/23 01:18:01;;;;;;;6.90;4.40;;;14.60;99.90;;;;;;5067264;28;20064;-75
2022/07/23 01:20:26;;;;;;;13.38;4.90;;;14.60;99.90;;;;;;5069688;28;20035;-75
2022/07/23 01:22:52;;;;;;;10.02;4.30;;;14.50;99.90;;;;;;5050866;28;20036;-75
2022/07/23 01:25:19;;;;;;;12.25;4.38;;;14.50;99.90;;;;;;5066951;28;20175;-75
2022/07/23 01:27:45;;;;;;;9.20;4.50;;;14.60;99.90;;;;;;5049752;28;20134;-76
2022/07/23 01:30:12;;;;;;;13.30;4.70;;;14.50;99.90;;;;;;5068927;28;20044;-75
2022/07/23 01:32:38;;;;;;;13.50;4.97;;;14.60;99.90;;;;;;5064872;28;20052;-75
2022/07/23 01:35:05;;;;;;;8.77;5.00;;;14.50;99.90;;;;;;5050893;28;20554;-75
2022/07/23 01:37:31;;;;;;;12.02;5.10;;;14.60;99.90;;;;;;5047743;28;20387;-76
2022/07/23 01:39:57;;;;;;;11.68;4.78;;;14.50;99.90;;;;;;5098840;28;20036;-76
2022/07/23 01:42:23;;;;;;;8.05;4.72;;;14.50;99.90;;;;;;5085286;28;20060;-73
2022/07/23 01:44:51;;;;;;;9.73;4.85;;;14.40;99.90;;;;;;5103038;28;20104;-74
2022/07/23 01:47:17;;;;;;;9.82;4.75;;;14.50;99.90;;;;;;5044632;28;20052;-75
2022/07/23 01:49:43;;;;;;;13.70;5.03;;;14.40;99.90;;;;;;5054209;28;20606;-75
2022/07/23 01:52:10;;;;;;;11.23;4.57;;;14.40;99.90;;;;;;5099417;28;20040;-74
2022/07/23 01:54:38;;;;;;;14.18;5.13;;;14.50;99.90;;;;;;5050610;28;20048;-77
2022/07/23 01:57:08;;;;;;;10.90;4.90;;;14.40;99.90;;;;;;5065820;28;20095;-76
2022/07/23 01:59:34;;;;;;;13.45;4.93;;;14.40;99.90;;;;;;5084608;28;20043;-76
2022/07/23 02:02:00;;;;;;;10.13;5.20;;;14.40;99.90;;;;;;5052561;28;20116;-76
2022/07/23 02:04:26;;;;;;;13.10;5.18;;;14.40;99.90;;;;;;5069366;28;20221;-75
2022/07/23 02:06:53;;;;;;;8.35;4.75;;;14.40;99.90;;;;;;5050295;28;20430;-76
2022/07/23 02:09:19;;;;;;;8.77;5.32;;;14.30;99.90;;;;;;5051172;28;20128;-75
2022/07/23 02:11:44;;;;;;;10.02;5.80;;;14.30;99.90;;;;;;5066833;28;20055;-75
2022/07/23 02:14:10;;;;;;;7.00;4.80;;;14.30;99.90;;;;;;5066819;28;20375;-76
2022/07/23 02:16:36;;;;;;;9.85;5.00;;;14.30;99.90;;;;;;5065793;28;20060;-76
2022/07/23 02:19:03;;;;;;;9.88;5.10;;;14.30;99.90;;;;;;5050501;28;20040;-75
2022/07/23 02:21:29;;;;;;;8.52;5.28;;;14.30;99.90;;;;;;5068355;28;20040;-75
2022/07/23 02:23:54;;;;;;;12.40;5.63;;;14.30;99.90;;;;;;5049059;28;20113;-75
2022/07/23 02:26:20;;;;;;;12.40;6.35;;;14.30;99.90;;;;;;5062512;28;21040;-76
2022/07/23 02:28:45;;;;;;;13.18;6.30;;;14.30;99.90;;;;;;5065938;28;20460;-75
2022/07/23 02:31:11;;;;;;;10.15;5.88;;;14.20;99.90;;;;;;5083664;28;20051;-74
2022/07/23 02:33:37;;;;;;;10.00;5.53;;;14.30;99.90;;;;;;5083232;28;20056;-76
2022/07/23 02:36:03;;;;;;;10.18;5.45;;;14.30;99.90;;;;;;5065981;28;20065;-75
2022/07/23 02:38:28;;;;;;;14.27;5.55;;;14.30;99.90;;;;;;5063690;28;20032;-75
2022/07/23 02:40:54;;;;;;;14.70;6.05;;;14.30;99.90;;;;;;5067043;28;20024;-76
2022/07/23 02:43:19;;;;;;;12.43;5.75;;;14.30;99.90;;;;;;5065867;28;20045;-76
2022/07/23 02:45:45;;;;;;;10.18;5.85;;;14.30;99.90;;;;;;5066505;28;20064;-75
2022/07/23 02:48:12;;;;;;;15.35;5.80;;;14.30;99.90;;;;;;5100182;28;20037;-76
2022/07/23 02:50:38;;;;;;;8.63;5.28;;;14.30;99.90;;;;;;5065091;28;20040;-75
2022/07/23 02:53:04;;;;;;;11.05;5.60;;;14.20;99.90;;;;;;5049970;28;20044;-76
2022/07/23 02:55:31;;;;;;;10.93;5.82;;;14.30;99.90;;;;;;5070036;28;20036;-76
2022/07/23 02:57:56;;;;;;;7.07;5.60;;;14.20;99.90;;;;;;5097613;28;20044;-76
2022/07/23 03:00:22;;;;;;;9.35;5.40;;;14.30;99.90;;;;;;5052221;28;20044;-75
2022/07/23 03:02:48;;;;;;;11.13;6.05;;;14.30;99.90;;;;;;5050244;28;20028;-74
2022/07/23 03:05:13;;;;;;;16.40;6.07;;;14.20;99.90;;;;;;5070414;28;20075;-75
2022/07/23 03:07:39;;;;;;;12.82;6.13;;;14.20;99.90;;;;;;5066949;28;20131;-74
2022/07/23 03:10:08;;;;;;;12.63;6.05;;;14.20;99.90;;;;;;5068982;28;20076;-76
2022/07/23 03:12:34;;;;;;;11.18;6.55;;;14.20;99.90;;;;;;5067071;28;20102;-76
2022/07/23 03:14:59;;;;;;;9.35;5.90;;;14.20;99.90;;;;;;5067502;28;20044;-75
2022/07/23 03:17:25;;;;;;;15.25;6.20;;;14.20;99.90;;;;;;5044930;28;20384;-75
2022/07/23 03:19:51;;;;;;;13.23;5.90;;;14.10;99.90;;;;;;5068892;28;20056;-75
2022/07/23 03:22:16;;;;;;;16.42;6.10;;;14.20;99.90;;;;;;5066606;28;20083;-74
2022/07/23 03:24:54;;;;;;;14.43;5.55;;;14.10;99.90;;;;;;5066467;28;20432;-75
2022/07/23 03:27:21;;;;;;;14.07;5.72;;;14.10;99.90;;;;;;5065389;28;20047;-75
2022/07/23 03:29:47;;;;;;;14.77;6.00;;;14.10;99.90;;;;;;5067583;28;20036;-75
2022/07/23 03:32:13;;;;;;;10.02;6.18;;;14.00;99.90;;;;;;5048268;28;20140;-75
2022/07/23 03:34:38;;;;;;;9.57;5.80;;;14.10;99.90;;;;;;5045523;28;20119;-75
2022/07/23 03:37:04;;;;;;;13.65;5.80;;;14.10;99.90;;;;;;5072157;28;20666;-76
2022/07/23 03:39:30;;;;;;;9.82;5.47;;;14.10;99.90;;;;;;5064395;28;20033;-75
2022/07/23 03:41:56;;;;;;;9.13;5.82;;;14.10;99.90;;;;;;5067565;28;20060;-76
2022/07/23 03:44:22;;;;;;;12.32;5.97;;;14.20;99.90;;;;;;5066595;28;20095;-75
2022/07/23 03:46:48;;;;;;;15.43;5.95;;;14.10;99.90;;;;;;5061186;28;20426;-76
2022/07/23 03:49:13;;;;;;;10.27;5.65;;;14.20;99.90;;;;;;5067135;28;20053;-76
2022/07/23 03:51:39;;;;;;;15.85;5.93;;;14.20;99.90;;;;;;5062735;28;20040;-76
2022/07/23 03:54:05;;;;;;;9.38;5.20;;;14.20;99.90;;;;;;5048195;28;20125;-75
2022/07/23 03:56:30;;;;;;;10.25;5.35;;;14.10;99.90;;;;;;5096886;28;20037;-75
2022/07/23 03:58:56;;;;;;;11.45;5.40;;;14.10;99.90;;;;;;5070453;28;20434;-75
2022/07/23 04:01:22;;;;;;;11.05;5.82;;;14.20;99.90;;;;;;5072965;28;20043;-76
2022/07/23 04:03:47;;;;;;;8.85;5.25;;;14.20;99.90;;;;;;5085378;28;20044;-75
2022/07/23 04:06:13;;;;;;;10.45;5.43;;;14.20;99.90;;;;;;5064752;28;20037;-76
2022/07/23 04:08:39;;;;;;;7.18;5.32;;;14.20;99.90;;;;;;5069854;28;20067;-75
2022/07/23 04:11:04;;;;;;;13.38;6.03;;;14.20;99.90;;;;;;5070900;28;20036;-77
2022/07/23 04:13:32;;;;;;;11.43;5.68;;;14.30;99.90;;;;;;5055100;28;20048;-76
2022/07/23 04:15:58;;;;;;;11.05;5.03;;;14.30;99.90;;;;;;5070302;28;20048;-76
2022/07/23 04:18:24;;;;;;;11.80;5.13;;;14.40;99.90;;;;;;5069816;28;20132;-76
2022/07/23 04:20:51;;;;;;;10.90;5.00;;;14.40;99.90;;;;;;5066832;28;20085;-75
2022/07/23 04:23:17;;;;;;;10.50;5.10;;;14.40;99.90;;;;;;5074312;28;20132;-75
2022/07/23 04:25:43;;;;;;;11.00;5.05;;;14.50;99.90;;;;;;5084678;28;20056;-74
2022/07/23 04:28:09;;;;;;;7.35;4.57;;;14.50;99.90;;;;;;5072303;28;20039;-75
2022/07/23 04:30:35;;;;;;;10.32;5.03;;;14.50;99.90;;;;;;5070253;28;20072;-75
2022/07/23 04:33:01;;;;;;;8.27;4.50;;;14.50;99.90;;;;;;5100620;28;20073;-76
2022/07/23 04:35:27;;;;;;;8.90;4.07;;;14.60;99.90;;;;;;5084218;28;20510;-75
2022/07/23 04:37:54;;;;;;;9.52;3.80;;;14.60;99.90;;;;;;5081242;28;20210;-76
2022/07/23 04:40:20;;;;;;;9.23;3.70;;;14.60;99.90;;;;;;5055336;28;20078;-76
2022/07/23 04:42:45;;;;;;;10.23;3.90;;;14.60;99.90;;;;;;5086907;28;20096;-76
2022/07/23 04:45:11;;;;;;;7.68;4.00;;;14.70;99.90;;;;;;5084121;28;20048;-76
2022/07/23 04:47:37;;;;;;;10.25;4.15;;;14.80;99.90;;;;;;5069291;28;20044;-77
2022/07/23 04:50:03;;;;;;;9.52;4.38;;;14.80;99.90;;;;;;5068671;28;20049;-77
2022/07/23 04:52:28;;;;;;;11.40;4.18;;;14.80;99.90;;;;;;5068131;28;20061;-77
2022/07/23 04:54:54;;;;;;;8.95;3.55;;;14.90;99.90;;;;;;5067987;28;20051;-75
2022/07/23 04:57:20;;;;;;;5.30;3.50;;;15.00;99.90;;;;;;5097178;28;20044;-77
2022/07/23 04:59:45;;;;;;;5.65;3.70;;;15.10;99.90;;;;;;5085854;28;20066;-77
2022/07/23 05:02:11;;;;;;;5.55;3.25;;;15.10;99.90;;;;;;5095737;28;20043;-76
2022/07/23 05:04:38;;;;;;;7.07;3.00;;;15.20;99.90;;;;;;5063772;28;20146;-77
2022/07/23 05:07:04;;;;;;;6.78;2.85;;;15.30;99.90;;;;;;5079309;28;20048;-75
2022/07/23 05:09:29;;;;;;;7.20;3.53;;;15.20;99.90;;;;;;5048679;28;20086;-77
2022/07/23 05:11:55;;;;;;;7.18;3.08;;;15.30;99.90;;;;;;5046816;28;20048;-77
2022/07/23 05:14:21;;;;;;;7.88;3.08;;;15.40;99.90;;;;;;5031310;28;20048;-76
2022/07/23 05:16:47;;;;;;;9.30;3.10;;;15.40;99.90;;;;;;5074604;28;20062;-76
2022/07/23 05:19:13;;;;;;;7.57;2.95;;;15.40;99.90;;;;;;5064542;28;20060;-75
2022/07/23 05:21:41;;;;;;;6.78;2.90;;;15.40;99.90;;;;;;5096341;28;20170;-74
2022/07/23 05:24:07;;;;;;;4.63;2.22;;;15.40;99.90;;;;;;5064600;28;20044;-77
2022/07/23 05:26:33;;;;;;;7.10;2.35;;;15.50;99.90;;;;;;5098333;28;20028;-77
2022/07/23 05:28:59;;;;;;;8.68;2.47;;;15.70;99.90;;;;;;5065535;28;20123;-76
2022/07/23 05:31:24;;;;;;;3.63;2.45;;;15.90;99.90;;;;;;5063410;28;20051;-77
2022/07/23 05:33:50;;;;;;;5.70;2.17;;;15.90;99.90;;;;;;5061203;28;20059;-77
2022/07/23 05:36:16;;;;;;;3.95;2.20;;;15.90;99.90;;;;;;5045387;28;20053;-77
2022/07/23 05:38:41;;;;;;;5.07;1.92;;;16.00;99.90;;;;;;5097238;28;20115;-75
2022/07/23 05:41:07;;;;;;;3.67;2.15;;;16.10;99.90;;;;;;5064227;28;20123;-76
2022/07/23 05:43:33;;;;;;;7.18;2.70;;;16.20;99.90;;;;;;5054811;28;20063;-77
2022/07/23 05:45:58;;;;;;;4.60;2.63;;;16.40;99.90;;;;;;5033690;28;20376;-75
2022/07/23 05:48:24;;;;;;;5.25;2.80;;;16.60;99.90;;;;;;5076407;28;20037;-76
2022/07/23 05:50:50;;;;;;;4.72;2.60;;;16.60;99.90;;;;;;5064716;28;20487;-78
2022/07/23 05:53:15;;;;;;;4.60;2.30;;;16.60;99.90;;;;;;5076676;28;20151;-77
2022/07/23 05:55:41;;;;;;;5.95;2.58;;;16.80;99.90;;;;;;5062285;28;20498;-79
2022/07/23 05:58:06;;;;;;;7.88;3.00;;;16.90;99.90;;;;;;5048698;28;20388;-76
2022/07/23 06:00:32;;;;;;;6.20;2.20;;;16.80;99.90;;;;;;5067715;28;20483;-78
2022/07/23 06:02:58;;;;;;;6.93;2.00;;;16.90;99.90;;;;;;5053466;28;20055;-78
2022/07/23 06:05:24;;;;;;;8.80;2.15;;;17.10;99.90;;;;;;5066178;28;20050;-78
2022/07/23 06:07:50;;;;;;;5.40;2.38;;;17.10;99.90;;;;;;5061520;28;20039;-78
2022/07/23 06:10:16;;;;;;;7.75;1.85;;;17.00;99.90;;;;;;5048124;28;20139;-76
2022/07/23 06:12:42;;;;;;;8.65;2.40;;;17.20;99.90;;;;;;5069310;28;20116;-77
2022/07/23 06:15:08;;;;;;;4.43;1.80;;;17.40;99.90;;;;;;5058171;28;20056;-78
2022/07/23 06:17:34;;;;;;;7.30;2.22;;;17.50;99.90;;;;;;5057773;28;20048;-76
2022/07/23 06:20:00;;;;;;;5.93;2.30;;;17.40;99.90;;;;;;5066123;28;20485;-76
2022/07/23 06:22:25;;;;;;;7.45;2.22;;;17.30;99.90;;;;;;5063199;28;20467;-77
2022/07/23 06:24:51;;;;;;;7.38;2.33;;;17.30;99.90;;;;;;5060996;28;20112;-78
2022/07/23 06:27:18;;;;;;;3.90;2.10;;;17.20;99.90;;;;;;5048804;28;20049;-76
2022/07/23 06:29:43;;;;;;;6.45;2.28;;;17.20;99.90;;;;;;5066103;28;20057;-75
2022/07/23 06:32:09;;;;;;;4.15;1.80;;;17.40;99.90;;;;;;5066669;28;20147;-75
2022/07/23 06:34:37;;;;;;;4.88;2.13;;;17.30;99.90;;;;;;5067373;28;20064;-75
2022/07/23 06:37:03;;;;;;;4.45;1.60;;;17.30;99.90;;;;;;5067229;28;20131;-76
2022/07/23 06:39:29;;;;;;;6.57;2.22;;;17.30;99.90;;;;;;5060090;28;20186;-76
2022/07/23 06:41:54;;;;;;;3.97;1.50;;;17.30;99.90;;;;;;5060399;28;20048;-75
2022/07/23 06:44:20;;;;;;;4.40;1.88;;;17.40;99.90;;;;;;5059039;28;20052;-75
2022/07/23 06:46:45;;;;;;;5.88;2.10;;;17.60;99.90;;;;;;5059360;28;20057;-77
2022/07/23 06:49:11;;;;;;;3.17;1.13;;;17.70;99.90;;;;;;5043920;28;20056;-76
2022/07/23 06:51:37;;;;;;;4.70;1.42;;;17.80;99.90;;;;;;5060603;28;20044;-75
2022/07/23 06:54:03;;;;;;;4.55;1.75;;;17.70;99.90;;;;;;5063628;28;20494;-76
2022/07/23 06:56:29;;;;;;;3.55;1.30;;;17.60;99.90;;;;;;5048332;28;20097;-78
2022/07/23 06:58:55;;;;;;;4.78;1.30;;;17.60;99.90;;;;;;5064579;28;20040;-75
2022/07/23 07:01:21;;;;;;;2.88;1.02;;;17.60;99.90;;;;;;5047617;28;20044;-76
2022/07/23 07:07:27;;;;;;;4.35;1.08;;;17.70;99.90;;;;;;5072530;28;20422;-74
2022/07/23 07:09:53;;;;;;;5.53;0.90;;;17.60;99.90;;;;;;5071049;28;20044;-72
2022/07/23 07:12:22;;;;;;;2.22;0.70;;;17.70;99.90;;;;;;5063000;28;20392;-75
2022/07/23 07:14:48;;;;;;;2.08;0.68;;;17.80;99.90;;;;;;5062216;28;20080;-75
2022/07/23 07:17:15;;;;;;;8.90;0.80;;;18.00;99.90;;;;;;5044449;28;20151;-74
2022/07/23 07:19:40;;;;;;;1.65;0.73;;;18.00;99.90;;;;;;5049680;28;20055;-75
2022/07/23 07:22:06;;;;;;;3.88;1.33;;;18.00;99.90;;;;;;5063352;28;20040;-74
2022/07/23 07:24:32;;;;;;;3.47;0.60;;;18.40;99.90;;;;;;5061552;28;20036;-76
2022/07/23 07:26:58;;;;;;;4.07;0.70;;;18.30;99.90;;;;;;5062651;28;20097;-76
2022/07/23 07:29:25;;;;;;;3.88;0.90;;;18.40;99.90;;;;;;5065223;28;20080;-77
2022/07/23 07:31:50;;;;;;;1.95;0.60;;;18.60;99.90;;;;;;5075293;28;20480;-78
2022/07/23 07:34:16;;;;;;;1.85;0.68;;;18.50;99.90;;;;;;5062730;28;20447;-78
2022/07/23 07:36:43;;;;;;;1.52;0.63;;;18.30;99.90;;;;;;5098469;28;20094;-76
2022/07/23 07:39:10;;;;;;;2.78;0.60;;;18.30;99.90;;;;;;5068041;28;20045;-77
2022/07/23 07:41:36;;;;;;;3.00;0.70;;;18.30;99.90;;;;;;5050658;28;20048;-78
2022/07/23 07:44:03;;;;;;;3.53;0.60;;;18.40;99.90;;;;;;5049939;28;20055;-78
2022/07/23 07:46:30;;;;;;;1.02;0.50;;;18.60;99.90;;;;;;5067862;28;20041;-75
2022/07/23 07:48:56;;;;;;;2.92;0.80;;;18.50;99.90;;;;;;5103753;28;20047;-81
2022/07/23 07:51:21;;;;;;;0.90;0.50;;;18.60;99.90;;;;;;5048273;28;20041;-78
2022/07/23 07:53:47;;;;;;;1.80;0.57;;;18.70;99.90;;;;;;5050208;28;20043;-77
2022/07/23 07:56:13;;;;;;;5.00;0.68;;;18.70;99.90;;;;;;5048401;28;20055;-77
2022/07/23 07:58:39;;;;;;;1.15;0.50;;;18.80;99.90;;;;;;5063029;28;20505;-76
2022/07/23 08:01:04;;;;;;;2.38;0.80;;;19.00;99.90;;;;;;5089218;28;20063;-77
2022/07/23 08:03:30;;;;;;;2.17;0.50;;;19.00;99.90;;;;;;5047905;28;20045;-79
2022/07/23 08:05:56;;;;;;;1.42;0.80;;;19.20;99.90;;;;;;5045707;28;20089;-82
2022/07/23 08:08:22;;;;;;;3.63;0.73;;;19.10;99.90;;;;;;5078288;28;20127;-79
2022/07/23 08:10:47;;;;;;;5.82;0.60;;;19.20;99.90;;;;;;5048198;28;20044;-82
2022/07/23 08:13:16;;;;;;;2.22;0.63;;;19.40;99.90;;;;;;5051109;28;20202;-77
2022/07/23 08:15:43;;;;;;;3.03;0.60;;;19.30;99.90;;;;;;5051877;28;20491;-80
2022/07/23 08:18:09;;;;;;;3.45;0.77;;;19.20;99.90;;;;;;5048525;28;21033;-78
2022/07/23 08:20:35;;;;;;;1.17;0.57;;;19.30;99.90;;;;;;5050026;28;20419;-77
2022/07/23 08:23:06;;;;;;;1.05;0.50;;;19.30;99.90;;;;;;5050953;28;20037;-76
2022/07/23 08:25:40;;;;;;;2.58;0.47;;;19.60;99.90;;;;;;5054164;28;20051;-79
2022/07/23 08:28:08;;;;;;;1.48;0.60;;;19.50;99.90;;;;;;5064022;28;20048;-75
2022/07/23 08:30:34;;;;;;;1.92;0.45;;;19.60;99.90;;;;;;5066019;28;20051;-76
2022/07/23 08:33:03;;;;;;;4.07;0.55;;;19.50;99.90;;;;;;5044726;28;20036;-76
2022/07/23 08:35:30;;;;;;;2.25;0.60;;;19.40;99.90;;;;;;5047208;28;20049;-77
2022/07/23 08:37:57;;;;;;;1.63;0.60;;;19.60;99.90;;;;;;5064875;28;20083;-79
2022/07/23 08:40:30;;;;;;;3.65;0.77;;;19.60;99.90;;;;;;5047998;28;20131;-76
2022/07/23 08:42:57;;;;;;;2.28;0.90;;;19.50;99.90;;;;;;5065371;28;20055;-79
2022/07/23 08:45:25;;;;;;;2.75;0.57;;;19.60;99.90;;;;;;5054654;28;20063;-79
2022/07/23 08:47:56;;;;;;;2.88;0.82;;;19.40;99.90;;;;;;5088766;28;20058;-76
2022/07/23 08:50:23;;;;;;;4.10;0.70;;;19.40;99.90;;;;;;5068202;28;20048;-74
2022/07/23 08:52:51;;;;;;;2.80;0.60;;;19.40;99.90;;;;;;5065636;28;20463;-76
2022/07/23 08:55:18;;;;;;;7.05;0.80;;;19.60;99.90;;;;;;5079058;28;20061;-78
2022/07/23 08:57:47;;;;;;;10.05;0.70;;;19.90;99.90;;;;;;5093985;28;20063;-75
2022/07/23 09:00:13;;;;;;;1.83;0.80;;;20.00;99.90;;;;;;5080637;28;20119;-75
2022/07/23 09:02:44;;;;;;;3.17;0.60;;;20.00;99.90;;;;;;5046131;28;20048;-75
2022/07/23 09:05:13;;;;;;;6.75;0.55;;;20.20;99.90;;;;;;5083867;28;20060;-75
2022/07/23 09:08:05;;;;;;;1.63;0.57;;;20.20;99.90;;;;;;5064830;28;20117;-75
2022/07/23 09:10:44;;;;;;;1.77;0.73;;;20.10;99.90;;;;;;5046159;28;20063;-73
2022/07/23 09:13:47;;;;;;;2.67;0.60;;;20.30;99.90;;;;;;5045608;28;20114;-77
2022/07/23 09:16:19;;;;;;;3.08;0.77;;;20.30;99.90;;;;;;5044421;28;20139;-78
2022/07/23 09:19:03;;;;;;;6.63;0.63;;;20.30;99.90;;;;;;5066514;28;20040;-76
2022/07/23 09:21:37;;;;;;;3.03;0.77;;;20.40;99.90;;;;;;5063464;28;20048;-77
2022/07/23 09:24:10;;;;;;;2.03;0.60;;;20.50;99.90;;;;;;5076301;28;20048;-77
2022/07/23 09:26:37;;;;;;;2.42;0.60;;;20.60;99.90;;;;;;5063685;28;20057;-76
2022/07/23 09:29:38;;;;;;;2.33;0.60;;;20.40;99.90;;;;;;5064118;28;20396;-77
2022/07/23 09:32:07;;;;;;;4.80;0.77;;;20.40;99.90;;;;;;5047135;28;20769;-78
2022/07/23 09:34:38;;;;;;;3.88;0.90;;;20.50;99.90;;;;;;5045816;28;20139;-78
2022/07/23 09:37:15;;;;;;;3.05;0.70;;;20.60;99.90;;;;;;5033263;28;20059;-75
2022/07/23 09:39:42;;;;;;;0.95;0.63;;;20.60;99.90;;;;;;5038584;28;20045;-76
2022/07/23 09:42:22;;;;;;;1.67;0.73;;;20.80;99.90;;;;;;5044046;28;20131;-77
2022/07/23 09:44:50;;;;;;;3.50;0.57;;;20.70;99.90;;;;;;5033159;28;20411;-79
2022/07/23 09:47:16;;;;;;;4.53;0.73;;;20.70;99.90;;;;;;5056604;28;20044;-77
2022/07/23 09:50:09;;;;;;;2.15;0.70;;;20.70;99.90;;;;;;5042033;28;20063;-76
2022/07/23 09:52:49;;;;;;;1.92;0.63;;;20.50;99.90;;;;;;5058416;28;20527;-77
2022/07/23 09:55:17;;;;;;;2.90;0.70;;;20.40;99.90;;;;;;5034746;28;20053;-80
2022/07/23 09:57:45;;;;;;;3.67;0.75;;;20.40;99.90;;;;;;5049355;28;20411;-79
2022/07/23 10:00:12;;;;;;;4.85;0.93;;;20.40;99.90;;;;;;5033231;28;20048;-79
2022/07/23 10:02:38;;;;;;;1.45;0.60;;;20.40;99.90;;;;;;5066985;28;20060;-77
2022/07/23 10:05:05;;;;;;;3.53;0.82;;;20.30;99.90;;;;;;5053639;28;20541;-80
2022/07/23 10:07:33;;;;;;;6.07;0.70;;;20.30;99.90;;;;;;5052901;28;20055;-79
2022/07/23 10:10:00;;;;;;;2.92;0.90;;;20.30;99.90;;;;;;5057471;28;20044;-78
2022/07/23 10:12:34;;;;;;;2.25;0.60;;;20.20;99.90;;;;;;5073588;28;20091;-79
2022/07/23 10:15:00;;;;;;;2.40;0.77;;;20.40;99.90;;;;;;5071244;28;20390;-77
2022/07/23 10:17:28;;;;;;;2.28;0.73;;;20.40;99.90;;;;;;5068793;28;20547;-79
2022/07/23 10:19:54;;;;;;;2.95;0.80;;;20.40;99.90;;;;;;5070125;28;20098;-81
2022/07/23 10:22:40;;;;;;;4.78;0.90;;;20.30;99.90;;;;;;5070217;28;20032;-79
2022/07/23 10:25:24;;;;;;;5.75;0.85;;;20.20;99.90;;;;;;5066016;28;20128;-80
2022/07/23 10:28:05;;;;;;;1.83;0.65;;;20.40;99.90;;;;;;5046302;28;20048;-80
2022/07/23 10:30:55;;;;;;;3.83;0.82;;;20.40;99.90;;;;;;5050401;28;20047;-79
2022/07/23 10:33:45;;;;;;;2.40;0.65;;;20.60;99.90;;;;;;5047857;28;21555;-78
2022/07/23 10:36:22;;;;;;;2.70;0.60;;;20.40;99.90;;;;;;5071388;28;20454;-77
2022/07/23 10:38:59;;;;;;;1.88;0.70;;;20.50;99.90;;;;;;5040183;28;20467;-78
2022/07/23 10:41:39;;;;;;;2.72;0.73;;;20.60;99.90;;;;;;5067420;28;20048;-78
2022/07/23 10:44:11;;;;;;;2.60;0.80;;;20.60;99.90;;;;;;5051281;28;20040;-79
2022/07/23 10:49:36;;;;;;;2.45;0.95;;;20.40;99.90;;;;;;5070652;28;20419;-79
2022/07/23 10:52:26;;;;;;;5.50;0.90;;;20.50;99.90;;;;;;5067159;28;20041;-80
2022/07/23 10:54:55;;;;;;;1.75;0.80;;;20.60;99.90;;;;;;5058758;28;20367;-80
2022/07/23 10:57:25;;;;;;;3.28;1.10;;;20.50;99.90;;;;;;5065323;28;20424;-77
2022/07/23 11:00:09;;;;;;;6.40;1.10;;;20.50;99.90;;;;;;5065956;28;20071;-78
2022/07/23 11:02:36;;;;;;;4.03;1.00;;;20.60;99.90;;;;;;5053847;28;20051;-83
2022/07/23 11:05:08;;;;;;;3.80;1.30;;;20.60;99.90;;;;;;5072418;28;20573;-82
2022/07/23 11:07:35;;;;;;;5.07;1.90;;;20.50;99.90;;;;;;5053068;28;20226;-79
2022/07/23 11:10:01;;;;;;;4.68;1.35;;;20.50;99.90;;;;;;5052973;28;20036;-77
2022/07/23 11:12:27;;;;;;;2.90;1.13;;;20.60;99.90;;;;;;5065883;28;20108;-79
2022/07/23 11:15:00;;;;;;;1.98;1.17;;;20.40;99.90;;;;;;5080149;28;20048;-81
2022/07/23 11:17:27;;;;;;;3.03;1.60;;;20.40;99.90;;;;;;5055577;28;20032;-81
2022/07/23 11:20:19;;;;;;;5.20;0.90;;;20.30;99.90;;;;;;5035539;28;20047;-81
2022/07/23 11:22:45;;;;;;;5.05;0.90;;;20.20;99.90;;;;;;5047852;28;20472;-82
2022/07/23 11:25:11;;;;;;;3.03;1.08;;;20.50;99.90;;;;;;5066338;28;20055;-79
2022/07/23 11:27:41;;;;;;;2.20;1.10;;;20.70;99.90;;;;;;5074307;28;20052;-78
2022/07/23 11:30:09;;;;;;;3.38;0.93;;;21.10;99.90;;;;;;5063780;28;20156;-81
2022/07/23 11:32:40;;;;;;;5.55;1.02;;;21.30;99.90;;;;;;5066946;28;20136;-78
2022/07/23 11:35:22;;;;;;;1.75;0.73;;;21.50;99.90;;;;;;5056403;28;20091;-79
2022/07/23 11:37:48;;;;;;;2.67;0.80;;;21.60;99.90;;;;;;5068688;28;20398;-82
2022/07/23 11:40:17;;;;;;;2.30;1.20;;;21.90;99.90;;;;;;5053586;28;20053;-80
2022/07/23 11:43:00;;;;;;;6.18;1.20;;;22.00;99.90;;;;;;5084101;28;20040;-79
2022/07/23 11:45:50;;;;;;;4.95;1.20;;;22.20;99.90;;;;;;5047124;28;20044;-84
2022/07/23 11:48:20;;;;;;;4.45;1.15;;;21.90;99.90;;;;;;5051135;28;20051;-78
2022/07/23 11:50:46;;;;;;;2.20;1.10;;;21.90;99.90;;;;;;5086690;28;20113;-77
2022/07/23 11:53:13;;;;;;;1.25;0.95;;;21.70;99.90;;;;;;5051874;28;20638;-80
2022/07/23 11:55:38;;;;;;;4.50;1.17;;;21.70;99.90;;;;;;5035435;28;20741;-80
2022/07/23 11:58:04;;;;;;;2.47;0.90;;;21.60;99.90;;;;;;5067619;28;20048;-78
2022/07/23 12:00:32;;;;;;;4.68;1.10;;;21.70;99.90;;;;;;5066195;28;20033;-79
2022/07/23 12:03:01;;;;;;;7.25;1.00;;;22.00;99.90;;;;;;5052380;28;20044;-76
2022/07/23 12:05:39;;;;;;;4.18;1.00;;;22.00;99.90;;;;;;5052695;28;20159;-81
2022/07/23 12:08:07;;;;;;;7.78;1.10;;;22.30;99.90;;;;;;5049766;28;20037;-79
2022/07/23 12:10:41;;;;;;;2.88;1.08;;;22.40;99.90;;;;;;5066358;28;20123;-80
2022/07/23 12:13:11;;;;;;;3.53;1.20;;;22.40;99.90;;;;;;5067997;28;20048;-79
2022/07/23 12:15:40;;;;;;;2.95;1.02;;;22.30;99.90;;;;;;5052646;28;20056;-77
2022/07/23 12:18:08;;;;;;;2.58;1.10;;;22.50;99.90;;;;;;5073658;28;20041;-80
2022/07/23 12:20:47;;;;;;;4.10;1.20;;;22.50;99.90;;;;;;5074349;28;20079;-78
2022/07/23 12:23:15;;;;;;;4.50;0.95;;;22.40;99.90;;;;;;5057480;28;20138;-78
2022/07/23 12:25:43;;;;;;;6.50;0.88;;;23.10;99.90;;;;;;5073303;28;20068;-80
2022/07/23 12:28:14;;;;;;;3.08;1.00;;;23.60;99.90;;;;;;5058098;28;20053;-78
2022/07/23 12:30:44;;;;;;;2.67;0.82;;;23.70;99.90;;;;;;5058896;28;20072;-78
2022/07/23 12:33:21;;;;;;;1.25;0.68;;;24.30;99.90;;;;;;5060044;28;20468;-76
2022/07/23 12:35:48;;;;;;;4.75;1.00;;;24.40;99.90;;;;;;5046717;28;20089;-77
2022/07/23 12:38:18;;;;;;;1.13;0.80;;;24.60;99.90;;;;;;5073041;28;20073;-81
2022/07/23 12:40:49;;;;;;;1.90;0.73;;;24.50;99.90;;;;;;5071323;28;20036;-80
2022/07/23 12:43:39;;;;;;;3.22;0.80;;;24.20;99.90;;;;;;5045313;28;20049;-77
2022/07/23 12:46:25;;;;;;;4.35;0.93;;;24.10;99.90;;;;;;5092690;28;20044;-79
2022/07/23 12:48:53;;;;;;;3.50;0.90;;;24.10;99.90;;;;;;5074262;28;20376;-80
2022/07/23 12:51:20;;;;;;;1.15;0.75;;;24.10;99.90;;;;;;5061482;28;20467;-80
2022/07/23 12:54:16;;;;;;;4.00;1.02;;;24.10;99.90;;;;;;5077175;28;20049;-79
2022/07/23 12:56:45;;;;;;;2.95;0.90;;;24.20;99.90;;;;;;5049646;28;20107;-81
2022/07/23 12:59:15;;;;;;;2.10;0.90;;;24.30;99.90;;;;;;5029904;28;20358;-80